Nearby METAR Reports

 

KOJC - Olathe/Executive, Kansas, USA
Distance from station: N 14mi, 23km
Updated: Mon, 09-Dec-2019 8:53am CST
Mist, Overcast
Mist, Overcast
 Wind from NW
Wind: NW 18 mph , 30 km/h, Gust: 31 mph , 50 km/h
Temperature: 43°F , 6°C
Wind Chill: 35°F , 2°C
Dew Point: 41°F , 5°C
Humidity: 93%
Barometer: 29.67 inHg , 1004.7 hPa
Summary: Mist
Clouds: Overcast
Visibility: 6 miles , 10 km
Cloud details: Overcast 900 ft
2019/12/09 14:53 KOJC 091453Z 32016G27KT 6SM BR OVC009 06/05 A2967 RMK AO2 PK WND 31027/1444 PRESRR SLP049 T00560050 53021
KIXD - Olathe/Industria, Kansas, USA
Distance from station: NW 15mi, 25km
Updated: Mon, 09-Dec-2019 9:29am CST
Overcast
Overcast
 Wind from NNW
Wind: NNW 23 mph , 37 km/h, Gust: 36 mph , 57 km/h
Temperature: 37°F , 3°C
Wind Chill: 26°F , -3°C
Dew Point: 34°F , 1°C
Humidity: 87%
Barometer: 29.73 inHg , 1006.8 hPa
Clouds: Overcast
Visibility: 7 miles , 11 km
Cloud details: Overcast 900 ft
2019/12/09 15:29 KIXD 091529Z 33020G31KT 7SM OVC009 03/01 A2973 RMK AO2 PK WND 34031/1524 CIG 007V012 T00280011
 
KLXT - Lees Summit Muni, Missouri, USA
Distance from station: NE 28mi, 46km
Updated: Mon, 09-Dec-2019 9:31am CST
Haze, Overcast
Haze, Overcast
 Wind from NW
Wind: NW 24 mph , 39 km/h, Gust: 32 mph , 52 km/h
Temperature: 41°F , 5°C
Wind Chill: 31°F , -1°C
Dew Point: 36°F , 2°C
Humidity: 81%
Barometer: 29.69 inHg , 1005.4 hPa
Summary: Haze
Clouds: Overcast
Visibility: 6 miles , 10 km
Cloud details: Overcast 900 ft
2019/12/09 15:31 KLXT 091531Z AUTO 31021G28KT 6SM HZ OVC009 05/02 A2969 RMK AO2 PK WND 32030/1508 PRESRR T00500022
KMKC - Kansas City/Dntn, Missouri, USA
Distance from station: N 33mi, 53km
Updated: Mon, 09-Dec-2019 8:54am CST
Overcast
Overcast
 Wind from NW
Wind: NW 20 mph , 31 km/h, Gust: 36 mph , 57 km/h
Temperature: 41°F , 5°C
Wind Chill: 32°F , 0°C
Dew Point: 36°F , 2°C
Humidity: 81%
Barometer: 29.68 inHg , 1005.1 hPa
Clouds: Overcast
Visibility: 7 miles , 11 km
Cloud details: Overcast 1100 ft
2019/12/09 14:54 KMKC 091454Z 32017G31KT 7SM OVC011 05/02 A2968 RMK AO2 PK WND 32032/1444 PRESRR SLP051 T00500022 51023
 
KLWC - Lawrence, Kansas, USA
Distance from station: NW 38mi, 61km
Updated: Mon, 09-Dec-2019 8:52am CST
Overcast
Overcast
 Wind from NNW
Wind: NNW 23 mph , 37 km/h, Gust: 36 mph , 57 km/h
Temperature: 36°F , 2°C
Wind Chill: 24°F , -4°C
Dew Point: 32°F , 0°C
Humidity: 87%
Barometer: 29.75 inHg , 1007.5 hPa
Clouds: Overcast
Visibility: 8 miles , 13 km
Cloud details: Overcast 1000 ft
2019/12/09 14:52 KLWC 091452Z AUTO 33020G31KT 8SM OVC010 02/00 A2975 RMK AO2 PK WND 33035/1404 PRESRR SLP076 T00170000 53053
KFOE - Topeka/Forbes, Kansas, USA
Distance from station: WNW 43mi, 70km
Updated: Mon, 09-Dec-2019 9:11am CST
Overcast
Overcast
 Wind from NNW
Wind: NNW 29 mph , 46 km/h, Gust: 38 mph , 61 km/h
Temperature: 34°F , 1°C
Wind Chill: 21°F , -6°C
Dew Point: 28°F , -2°C
Humidity: 81%
Barometer: 29.77 inHg , 1008.1 hPa
Clouds: Overcast
Visibility: 10 miles , 16 km
Cloud details: Overcast 1100 ft
2019/12/09 15:11 KFOE 091511Z 34025G33KT 10SM OVC011 01/M02 A2977 RMK AO2 PK WND 32034/1457 T00111022
 
KMCI - Kansas City/Intl, Missouri, USA
Distance from station: N 45mi, 73km
Updated: Mon, 09-Dec-2019 8:53am CST
Mist, Overcast
Mist, Overcast
 Wind from NNW
Wind: NNW 22 mph , 35 km/h, Gust: 36 mph , 57 km/h
Temperature: 37°F , 3°C
Wind Chill: 26°F , -3°C
Dew Point: 36°F , 2°C
Humidity: 93%
Barometer: 29.69 inHg , 1005.4 hPa
Summary: Mist
Clouds: Overcast
Visibility: 5 miles , 8 km
Cloud details: Overcast 700 ft
2019/12/09 14:53 KMCI 091453Z 33019G31KT 5SM BR OVC007 03/02 A2969 RMK AO2 PK WND 34032/1411 PRESRR SLP056 T00330017 53026
KRCM - Warrensburg Skyh, Missouri, USA
Distance from station: ENE 49mi, 80km
Updated: Mon, 09-Dec-2019 9:55am CST

 
2019/12/09 15:55 KRCM 091555Z AUTO RMK AO2 TSNO PWINO